Manokotak, Alaska
Current Conditions -  °F | °C
As of 2:56 PM on Wednesday 17 Dec 2014 (Local Time) from PAMB Reporting Station
Clear Clear  
Wind Chill: 17°   Ceiling: Unl
Heat Index: 26°   Visibility: 10mi
Dew Point: 25°   Wind: 9mph
Humidity: 96%   Direction: 30°NNE
Pressure: 29.4"   Gusts: NA
Location:  58.98°N, 159.06°W
Report Text: PAMB 172356Z AUTO 03008KT 10SM CLR M03/M04 A2940 RMK AO2 TSNO 58008 T10331038 11027 21044 SLP959 $
Loading
Personal Weather Stations






























Interactive Weather Map New forecast layout! Learn more

10-Day Weather Forecast

Advertisements
Track Severe Weather on mobile